sensor_id;sensor_type;location;lat;lon;timestamp;temperature;humidity
15341;DHT22;7770;52.158;5.372;2023-05-07T00:01:43;14.30;99.90
15341;DHT22;7770;52.158;5.372;2023-05-07T00:04:29;14.30;99.90
15341;DHT22;7770;52.158;5.372;2023-05-07T00:07:21;14.30;99.90
15341;DHT22;7770;52.158;5.372;2023-05-07T00:10:07;14.20;99.90
15341;DHT22;7770;52.158;5.372;2023-05-07T00:12:54;14.20;99.90
15341;DHT22;7770;52.158;5.372;2023-05-07T00:15:40;14.20;99.90
15341;DHT22;7770;52.158;5.372;2023-05-07T00:18:26;14.20;99.90
15341;DHT22;7770;52.158;5.372;2023-05-07T00:21:12;14.20;99.90
15341;DHT22;7770;52.158;5.372;2023-05-07T00:23:58;14.20;99.90
15341;DHT22;7770;52.158;5.372;2023-05-07T00:26:44;14.20;99.90
15341;DHT22;7770;52.158;5.372;2023-05-07T00:29:30;14.20;99.90
15341;DHT22;7770;52.158;5.372;2023-05-07T00:32:16;14.20;99.90
15341;DHT22;7770;52.158;5.372;2023-05-07T00:35:02;14.10;99.90
15341;DHT22;7770;52.158;5.372;2023-05-07T00:37:49;14.10;99.90
15341;DHT22;7770;52.158;5.372;2023-05-07T00:40:35;14.10;99.90
15341;DHT22;7770;52.158;5.372;2023-05-07T00:43:21;14.10;99.90
15341;DHT22;7770;52.158;5.372;2023-05-07T00:46:07;14.00;99.90
15341;DHT22;7770;52.158;5.372;2023-05-07T00:48:53;14.00;99.90
15341;DHT22;7770;52.158;5.372;2023-05-07T00:51:40;14.00;99.90
15341;DHT22;7770;52.158;5.372;2023-05-07T00:54:26;14.00;99.90
15341;DHT22;7770;52.158;5.372;2023-05-07T00:57:12;14.00;99.90
15341;DHT22;7770;52.158;5.372;2023-05-07T00:59:58;14.00;99.90
15341;DHT22;7770;52.158;5.372;2023-05-07T01:02:44;14.10;99.90
15341;DHT22;7770;52.158;5.372;2023-05-07T01:05:30;14.10;99.90
15341;DHT22;7770;52.158;5.372;2023-05-07T01:08:16;14.10;99.90
15341;DHT22;7770;52.158;5.372;2023-05-07T01:11:03;14.10;99.90
15341;DHT22;7770;52.158;5.372;2023-05-07T01:13:50;14.10;99.90
15341;DHT22;7770;52.158;5.372;2023-05-07T01:16:36;14.10;99.90
15341;DHT22;7770;52.158;5.372;2023-05-07T01:19:22;14.10;99.90
15341;DHT22;7770;52.158;5.372;2023-05-07T01:22:10;14.10;99.90
15341;DHT22;7770;52.158;5.372;2023-05-07T01:24:57;14.10;99.90
15341;DHT22;7770;52.158;5.372;2023-05-07T01:27:45;14.10;99.90
15341;DHT22;7770;52.158;5.372;2023-05-07T01:30:33;14.10;99.90
15341;DHT22;7770;52.158;5.372;2023-05-07T01:33:21;14.10;99.90
15341;DHT22;7770;52.158;5.372;2023-05-07T01:36:08;14.20;99.90
15341;DHT22;7770;52.158;5.372;2023-05-07T01:38:56;14.20;99.90
15341;DHT22;7770;52.158;5.372;2023-05-07T01:41:43;14.20;99.90
15341;DHT22;7770;52.158;5.372;2023-05-07T01:44:30;14.20;99.90
15341;DHT22;7770;52.158;5.372;2023-05-07T01:47:17;14.20;99.90
15341;DHT22;7770;52.158;5.372;2023-05-07T01:50:07;14.20;99.90
15341;DHT22;7770;52.158;5.372;2023-05-07T01:52:54;14.20;99.90
15341;DHT22;7770;52.158;5.372;2023-05-07T01:55:40;14.20;99.90
15341;DHT22;7770;52.158;5.372;2023-05-07T01:58:26;14.20;99.90
15341;DHT22;7770;52.158;5.372;2023-05-07T02:01:13;14.20;99.90
15341;DHT22;7770;52.158;5.372;2023-05-07T02:03:59;14.20;99.90
15341;DHT22;7770;52.158;5.372;2023-05-07T02:06:45;14.20;99.90
15341;DHT22;7770;52.158;5.372;2023-05-07T02:09:31;14.20;99.90
15341;DHT22;7770;52.158;5.372;2023-05-07T02:12:17;14.20;99.90
15341;DHT22;7770;52.158;5.372;2023-05-07T02:15:03;14.20;99.90
15341;DHT22;7770;52.158;5.372;2023-05-07T02:18:01;14.10;99.90
15341;DHT22;7770;52.158;5.372;2023-05-07T02:20:48;14.00;99.90
15341;DHT22;7770;52.158;5.372;2023-05-07T02:23:34;14.00;99.90
15341;DHT22;7770;52.158;5.372;2023-05-07T02:26:20;14.00;99.90
15341;DHT22;7770;52.158;5.372;2023-05-07T02:29:07;14.00;99.90
15341;DHT22;7770;52.158;5.372;2023-05-07T02:31:53;14.00;99.90
15341;DHT22;7770;52.158;5.372;2023-05-07T02:34:39;14.00;99.90
15341;DHT22;7770;52.158;5.372;2023-05-07T02:37:25;14.00;99.90
15341;DHT22;7770;52.158;5.372;2023-05-07T02:40:11;14.00;99.90
15341;DHT22;7770;52.158;5.372;2023-05-07T02:42:57;14.00;99.90
15341;DHT22;7770;52.158;5.372;2023-05-07T02:45:43;14.10;99.90
15341;DHT22;7770;52.158;5.372;2023-05-07T02:48:30;14.00;99.90
15341;DHT22;7770;52.158;5.372;2023-05-07T02:51:19;14.00;99.90
15341;DHT22;7770;52.158;5.372;2023-05-07T02:54:06;14.00;99.90
15341;DHT22;7770;52.158;5.372;2023-05-07T02:56:52;14.00;99.90
15341;DHT22;7770;52.158;5.372;2023-05-07T02:59:38;14.00;99.90
15341;DHT22;7770;52.158;5.372;2023-05-07T03:02:24;14.00;99.90
15341;DHT22;7770;52.158;5.372;2023-05-07T03:05:10;14.00;99.90
15341;DHT22;7770;52.158;5.372;2023-05-07T03:07:57;14.00;99.90
15341;DHT22;7770;52.158;5.372;2023-05-07T03:10:43;14.00;99.90
15341;DHT22;7770;52.158;5.372;2023-05-07T03:13:29;14.00;99.90
15341;DHT22;7770;52.158;5.372;2023-05-07T03:16:15;14.00;99.90
15341;DHT22;7770;52.158;5.372;2023-05-07T03:19:01;14.00;99.90
15341;DHT22;7770;52.158;5.372;2023-05-07T03:21:48;14.00;99.90
15341;DHT22;7770;52.158;5.372;2023-05-07T03:24:34;14.00;99.90
15341;DHT22;7770;52.158;5.372;2023-05-07T03:27:20;14.00;99.90
15341;DHT22;7770;52.158;5.372;2023-05-07T03:30:06;14.00;99.90
15341;DHT22;7770;52.158;5.372;2023-05-07T03:32:53;14.00;99.90
15341;DHT22;7770;52.158;5.372;2023-05-07T03:35:39;14.00;99.90
15341;DHT22;7770;52.158;5.372;2023-05-07T03:38:25;14.00;99.90
15341;DHT22;7770;52.158;5.372;2023-05-07T03:41:11;14.00;99.90
15341;DHT22;7770;52.158;5.372;2023-05-07T03:43:58;14.00;99.90
15341;DHT22;7770;52.158;5.372;2023-05-07T03:46:43;14.00;99.90
15341;DHT22;7770;52.158;5.372;2023-05-07T03:49:29;13.90;99.90
15341;DHT22;7770;52.158;5.372;2023-05-07T03:52:16;13.90;99.90
15341;DHT22;7770;52.158;5.372;2023-05-07T03:55:02;13.90;99.90
15341;DHT22;7770;52.158;5.372;2023-05-07T03:57:48;13.90;99.90
15341;DHT22;7770;52.158;5.372;2023-05-07T04:00:34;13.90;99.90
15341;DHT22;7770;52.158;5.372;2023-05-07T04:03:24;13.90;99.90
15341;DHT22;7770;52.158;5.372;2023-05-07T04:06:10;14.00;99.90
15341;DHT22;7770;52.158;5.372;2023-05-07T04:08:56;14.00;99.90
15341;DHT22;7770;52.158;5.372;2023-05-07T04:11:42;14.00;99.90
15341;DHT22;7770;52.158;5.372;2023-05-07T04:14:28;14.00;99.90
15341;DHT22;7770;52.158;5.372;2023-05-07T04:17:14;14.00;99.90
15341;DHT22;7770;52.158;5.372;2023-05-07T04:20:00;14.00;99.90
15341;DHT22;7770;52.158;5.372;2023-05-07T04:22:46;14.00;99.90
15341;DHT22;7770;52.158;5.372;2023-05-07T04:25:32;14.00;99.90
15341;DHT22;7770;52.158;5.372;2023-05-07T04:28:18;14.00;99.90
15341;DHT22;7770;52.158;5.372;2023-05-07T04:31:04;14.00;99.90
15341;DHT22;7770;52.158;5.372;2023-05-07T04:33:51;14.10;99.90
15341;DHT22;7770;52.158;5.372;2023-05-07T04:36:41;14.10;99.90
15341;DHT22;7770;52.158;5.372;2023-05-07T04:39:28;14.10;99.90
15341;DHT22;7770;52.158;5.372;2023-05-07T04:42:17;14.10;99.90
15341;DHT22;7770;52.158;5.372;2023-05-07T04:45:03;14.10;99.90
15341;DHT22;7770;52.158;5.372;2023-05-07T04:47:50;14.20;99.90
15341;DHT22;7770;52.158;5.372;2023-05-07T04:50:36;14.20;99.90
15341;DHT22;7770;52.158;5.372;2023-05-07T04:53:22;14.30;99.90
15341;DHT22;7770;52.158;5.372;2023-05-07T04:56:08;14.30;99.90
15341;DHT22;7770;52.158;5.372;2023-05-07T04:58:54;14.30;99.90
15341;DHT22;7770;52.158;5.372;2023-05-07T05:01:40;14.20;99.90
15341;DHT22;7770;52.158;5.372;2023-05-07T05:04:26;14.20;99.90
15341;DHT22;7770;52.158;5.372;2023-05-07T05:07:12;14.20;99.90
15341;DHT22;7770;52.158;5.372;2023-05-07T05:09:59;14.20;99.90
15341;DHT22;7770;52.158;5.372;2023-05-07T05:12:45;14.20;99.90
15341;DHT22;7770;52.158;5.372;2023-05-07T05:15:31;14.20;99.90
15341;DHT22;7770;52.158;5.372;2023-05-07T05:18:17;14.30;99.90
15341;DHT22;7770;52.158;5.372;2023-05-07T05:21:03;14.30;99.90
15341;DHT22;7770;52.158;5.372;2023-05-07T05:23:49;14.20;99.90
15341;DHT22;7770;52.158;5.372;2023-05-07T05:26:35;14.30;99.90
15341;DHT22;7770;52.158;5.372;2023-05-07T05:29:21;14.30;99.90
15341;DHT22;7770;52.158;5.372;2023-05-07T05:32:07;14.20;99.90
15341;DHT22;7770;52.158;5.372;2023-05-07T05:34:53;14.30;99.90
15341;DHT22;7770;52.158;5.372;2023-05-07T05:37:39;14.30;99.90
15341;DHT22;7770;52.158;5.372;2023-05-07T05:40:25;14.30;99.90
15341;DHT22;7770;52.158;5.372;2023-05-07T05:43:11;14.30;99.90
15341;DHT22;7770;52.158;5.372;2023-05-07T05:45:57;14.30;99.90
15341;DHT22;7770;52.158;5.372;2023-05-07T05:48:43;14.30;99.90
15341;DHT22;7770;52.158;5.372;2023-05-07T05:51:29;14.30;99.90
15341;DHT22;7770;52.158;5.372;2023-05-07T05:54:16;14.40;99.90
15341;DHT22;7770;52.158;5.372;2023-05-07T05:57:02;14.40;99.90
15341;DHT22;7770;52.158;5.372;2023-05-07T05:59:49;14.40;99.90
15341;DHT22;7770;52.158;5.372;2023-05-07T06:02:35;14.40;99.90
15341;DHT22;7770;52.158;5.372;2023-05-07T06:05:21;14.40;99.90
15341;DHT22;7770;52.158;5.372;2023-05-07T06:08:08;14.30;99.90
15341;DHT22;7770;52.158;5.372;2023-05-07T06:10:54;14.20;99.90
15341;DHT22;7770;52.158;5.372;2023-05-07T06:13:40;14.20;99.90
15341;DHT22;7770;52.158;5.372;2023-05-07T06:16:26;14.20;99.90
15341;DHT22;7770;52.158;5.372;2023-05-07T06:19:12;14.20;99.90
15341;DHT22;7770;52.158;5.372;2023-05-07T06:21:58;14.20;99.90
15341;DHT22;7770;52.158;5.372;2023-05-07T06:24:44;14.20;99.90
15341;DHT22;7770;52.158;5.372;2023-05-07T06:27:30;14.30;99.90
15341;DHT22;7770;52.158;5.372;2023-05-07T06:30:16;14.30;99.90
15341;DHT22;7770;52.158;5.372;2023-05-07T06:33:02;14.30;99.90
15341;DHT22;7770;52.158;5.372;2023-05-07T06:35:48;14.30;99.90
15341;DHT22;7770;52.158;5.372;2023-05-07T06:38:34;14.40;99.90
15341;DHT22;7770;52.158;5.372;2023-05-07T06:41:20;14.40;99.90
15341;DHT22;7770;52.158;5.372;2023-05-07T06:44:06;14.40;99.90
15341;DHT22;7770;52.158;5.372;2023-05-07T06:46:52;14.40;99.90
15341;DHT22;7770;52.158;5.372;2023-05-07T06:49:38;14.40;99.90
15341;DHT22;7770;52.158;5.372;2023-05-07T06:52:24;14.50;99.90
15341;DHT22;7770;52.158;5.372;2023-05-07T06:55:10;14.60;99.90
15341;DHT22;7770;52.158;5.372;2023-05-07T06:57:56;14.70;99.90
15341;DHT22;7770;52.158;5.372;2023-05-07T07:00:46;14.80;99.90
15341;DHT22;7770;52.158;5.372;2023-05-07T07:03:32;14.80;99.90
15341;DHT22;7770;52.158;5.372;2023-05-07T07:06:18;14.80;99.90
15341;DHT22;7770;52.158;5.372;2023-05-07T07:09:04;14.90;99.90
15341;DHT22;7770;52.158;5.372;2023-05-07T07:11:50;14.90;99.90
15341;DHT22;7770;52.158;5.372;2023-05-07T07:14:36;15.00;99.90
15341;DHT22;7770;52.158;5.372;2023-05-07T07:17:22;15.10;99.90
15341;DHT22;7770;52.158;5.372;2023-05-07T07:20:09;15.30;99.90
15341;DHT22;7770;52.158;5.372;2023-05-07T07:22:56;15.40;99.90
15341;DHT22;7770;52.158;5.372;2023-05-07T07:25:42;15.80;99.90
15341;DHT22;7770;52.158;5.372;2023-05-07T07:28:28;16.00;99.90
15341;DHT22;7770;52.158;5.372;2023-05-07T07:31:15;16.10;99.90
15341;DHT22;7770;52.158;5.372;2023-05-07T07:34:01;16.10;99.90
15341;DHT22;7770;52.158;5.372;2023-05-07T07:36:47;16.30;99.90
15341;DHT22;7770;52.158;5.372;2023-05-07T07:39:33;16.50;99.90
15341;DHT22;7770;52.158;5.372;2023-05-07T07:42:19;16.80;99.90
15341;DHT22;7770;52.158;5.372;2023-05-07T07:45:05;17.00;99.90
15341;DHT22;7770;52.158;5.372;2023-05-07T07:47:52;17.30;99.90
15341;DHT22;7770;52.158;5.372;2023-05-07T07:50:38;18.20;99.90
15341;DHT22;7770;52.158;5.372;2023-05-07T07:53:24;18.60;99.90
15341;DHT22;7770;52.158;5.372;2023-05-07T07:56:10;18.60;99.90
15341;DHT22;7770;52.158;5.372;2023-05-07T07:58:57;18.70;99.90
15341;DHT22;7770;52.158;5.372;2023-05-07T08:01:43;18.60;99.90
15341;DHT22;7770;52.158;5.372;2023-05-07T08:04:29;18.20;99.90
15341;DHT22;7770;52.158;5.372;2023-05-07T08:07:18;17.60;99.90
15341;DHT22;7770;52.158;5.372;2023-05-07T08:10:06;17.20;99.90
15341;DHT22;7770;52.158;5.372;2023-05-07T08:12:52;17.10;99.90
15341;DHT22;7770;52.158;5.372;2023-05-07T08:15:38;17.20;99.90
15341;DHT22;7770;52.158;5.372;2023-05-07T08:18:25;17.20;99.90
15341;DHT22;7770;52.158;5.372;2023-05-07T08:21:11;17.20;99.90
15341;DHT22;7770;52.158;5.372;2023-05-07T08:23:57;16.90;99.90
15341;DHT22;7770;52.158;5.372;2023-05-07T08:26:44;16.90;99.90
15341;DHT22;7770;52.158;5.372;2023-05-07T08:29:30;16.60;99.90
15341;DHT22;7770;52.158;5.372;2023-05-07T08:32:16;16.50;99.90
15341;DHT22;7770;52.158;5.372;2023-05-07T08:35:02;16.40;99.90
15341;DHT22;7770;52.158;5.372;2023-05-07T08:37:49;16.50;99.90
15341;DHT22;7770;52.158;5.372;2023-05-07T08:40:37;16.40;99.90
15341;DHT22;7770;52.158;5.372;2023-05-07T08:43:27;16.40;99.90
15341;DHT22;7770;52.158;5.372;2023-05-07T08:46:22;16.70;99.90
15341;DHT22;7770;52.158;5.372;2023-05-07T08:49:08;16.80;99.90
15341;DHT22;7770;52.158;5.372;2023-05-07T08:51:54;16.80;99.90
15341;DHT22;7770;52.158;5.372;2023-05-07T08:54:41;16.70;99.90
15341;DHT22;7770;52.158;5.372;2023-05-07T08:57:27;16.60;99.90
15341;DHT22;7770;52.158;5.372;2023-05-07T09:00:13;16.70;99.90
15341;DHT22;7770;52.158;5.372;2023-05-07T09:03:00;16.60;99.90
15341;DHT22;7770;52.158;5.372;2023-05-07T09:05:47;16.60;99.90
15341;DHT22;7770;52.158;5.372;2023-05-07T09:08:33;16.50;99.90
15341;DHT22;7770;52.158;5.372;2023-05-07T09:11:21;16.40;99.90
15341;DHT22;7770;52.158;5.372;2023-05-07T09:14:08;16.50;99.90
15341;DHT22;7770;52.158;5.372;2023-05-07T09:16:54;16.60;99.90
15341;DHT22;7770;52.158;5.372;2023-05-07T09:19:42;16.60;99.90
15341;DHT22;7770;52.158;5.372;2023-05-07T09:22:32;16.50;99.90
15341;DHT22;7770;52.158;5.372;2023-05-07T09:25:28;16.50;99.90
15341;DHT22;7770;52.158;5.372;2023-05-07T09:28:15;16.80;99.90
15341;DHT22;7770;52.158;5.372;2023-05-07T09:31:02;16.80;99.90
15341;DHT22;7770;52.158;5.372;2023-05-07T09:33:48;16.70;99.90
15341;DHT22;7770;52.158;5.372;2023-05-07T09:36:34;16.80;99.90
15341;DHT22;7770;52.158;5.372;2023-05-07T09:39:20;17.10;99.90
15341;DHT22;7770;52.158;5.372;2023-05-07T09:42:06;17.40;99.90
15341;DHT22;7770;52.158;5.372;2023-05-07T09:44:52;17.40;99.90
15341;DHT22;7770;52.158;5.372;2023-05-07T09:47:39;17.40;99.90
15341;DHT22;7770;52.158;5.372;2023-05-07T09:50:36;17.40;99.90
15341;DHT22;7770;52.158;5.372;2023-05-07T09:53:30;17.60;99.90
15341;DHT22;7770;52.158;5.372;2023-05-07T09:56:17;17.80;99.90
15341;DHT22;7770;52.158;5.372;2023-05-07T09:59:05;17.80;99.90
15341;DHT22;7770;52.158;5.372;2023-05-07T10:01:57;17.70;99.90
15341;DHT22;7770;52.158;5.372;2023-05-07T10:04:45;18.00;99.90
15341;DHT22;7770;52.158;5.372;2023-05-07T10:07:32;18.30;99.90
15341;DHT22;7770;52.158;5.372;2023-05-07T10:10:18;18.60;99.90
15341;DHT22;7770;52.158;5.372;2023-05-07T10:13:05;18.40;99.90
15341;DHT22;7770;52.158;5.372;2023-05-07T10:15:55;18.40;99.90
15341;DHT22;7770;52.158;5.372;2023-05-07T10:18:43;18.40;99.90
15341;DHT22;7770;52.158;5.372;2023-05-07T10:21:29;18.60;99.90
15341;DHT22;7770;52.158;5.372;2023-05-07T10:24:21;18.70;99.90
15341;DHT22;7770;52.158;5.372;2023-05-07T10:27:12;19.00;99.90
15341;DHT22;7770;52.158;5.372;2023-05-07T10:30:15;18.80;99.90
15341;DHT22;7770;52.158;5.372;2023-05-07T10:33:13;18.50;99.90
15341;DHT22;7770;52.158;5.372;2023-05-07T10:36:01;18.50;99.90
15341;DHT22;7770;52.158;5.372;2023-05-07T10:38:50;18.70;99.90
15341;DHT22;7770;52.158;5.372;2023-05-07T10:41:36;18.70;99.90
15341;DHT22;7770;52.158;5.372;2023-05-07T10:44:29;19.00;99.90
15341;DHT22;7770;52.158;5.372;2023-05-07T10:47:18;19.80;99.90
15341;DHT22;7770;52.158;5.372;2023-05-07T11:02:16;20.80;99.90
15341;DHT22;7770;52.158;5.372;2023-05-07T11:05:21;20.90;99.90
15341;DHT22;7770;52.158;5.372;2023-05-07T11:08:08;20.60;99.90
15341;DHT22;7770;52.158;5.372;2023-05-07T11:10:56;20.60;99.90
15341;DHT22;7770;52.158;5.372;2023-05-07T11:13:45;21.20;99.90
15341;DHT22;7770;52.158;5.372;2023-05-07T11:16:32;20.80;99.90
15341;DHT22;7770;52.158;5.372;2023-05-07T11:19:47;20.70;99.90
15341;DHT22;7770;52.158;5.372;2023-05-07T11:25:22;21.80;99.90
15341;DHT22;7770;52.158;5.372;2023-05-07T11:28:09;22.20;99.90
15341;DHT22;7770;52.158;5.372;2023-05-07T11:30:57;22.60;99.90
15341;DHT22;7770;52.158;5.372;2023-05-07T11:33:43;22.50;99.90
15341;DHT22;7770;52.158;5.372;2023-05-07T11:36:32;22.20;99.90
15341;DHT22;7770;52.158;5.372;2023-05-07T11:39:32;22.10;99.90
15341;DHT22;7770;52.158;5.372;2023-05-07T11:42:31;22.10;99.90
15341;DHT22;7770;52.158;5.372;2023-05-07T11:45:25;22.20;99.90
15341;DHT22;7770;52.158;5.372;2023-05-07T11:48:15;21.60;99.90
15341;DHT22;7770;52.158;5.372;2023-05-07T11:51:04;21.60;99.90
15341;DHT22;7770;52.158;5.372;2023-05-07T11:53:51;22.20;99.90
15341;DHT22;7770;52.158;5.372;2023-05-07T11:56:37;22.80;99.90
15341;DHT22;7770;52.158;5.372;2023-05-07T11:59:24;22.90;99.90
15341;DHT22;7770;52.158;5.372;2023-05-07T12:02:10;22.20;99.90
15341;DHT22;7770;52.158;5.372;2023-05-07T12:04:56;22.00;99.90
15341;DHT22;7770;52.158;5.372;2023-05-07T12:07:42;21.90;99.90
15341;DHT22;7770;52.158;5.372;2023-05-07T12:10:28;22.60;99.90
15341;DHT22;7770;52.158;5.372;2023-05-07T12:13:15;22.90;99.90
15341;DHT22;7770;52.158;5.372;2023-05-07T12:16:02;22.70;99.90
15341;DHT22;7770;52.158;5.372;2023-05-07T12:18:50;23.20;99.90
15341;DHT22;7770;52.158;5.372;2023-05-07T12:21:38;23.30;99.90
15341;DHT22;7770;52.158;5.372;2023-05-07T12:24:25;23.40;99.90
15341;DHT22;7770;52.158;5.372;2023-05-07T12:27:11;23.50;99.90
15341;DHT22;7770;52.158;5.372;2023-05-07T12:29:57;22.80;99.90
15341;DHT22;7770;52.158;5.372;2023-05-07T12:32:46;23.20;99.90
15341;DHT22;7770;52.158;5.372;2023-05-07T12:35:37;23.20;99.90
15341;DHT22;7770;52.158;5.372;2023-05-07T12:38:25;22.80;99.90
15341;DHT22;7770;52.158;5.372;2023-05-07T12:41:11;22.70;99.90
15341;DHT22;7770;52.158;5.372;2023-05-07T12:44:00;23.00;99.90
15341;DHT22;7770;52.158;5.372;2023-05-07T12:46:46;22.60;99.90
15341;DHT22;7770;52.158;5.372;2023-05-07T12:49:34;22.70;99.90
15341;DHT22;7770;52.158;5.372;2023-05-07T12:52:23;23.10;99.90
15341;DHT22;7770;52.158;5.372;2023-05-07T12:55:13;22.90;99.90
15341;DHT22;7770;52.158;5.372;2023-05-07T12:58:01;22.60;99.90
15341;DHT22;7770;52.158;5.372;2023-05-07T13:00:50;22.20;99.90
15341;DHT22;7770;52.158;5.372;2023-05-07T13:03:37;22.20;99.90
15341;DHT22;7770;52.158;5.372;2023-05-07T13:06:23;22.30;99.90
15341;DHT22;7770;52.158;5.372;2023-05-07T13:09:09;22.80;99.90
15341;DHT22;7770;52.158;5.372;2023-05-07T13:11:56;22.70;99.90
15341;DHT22;7770;52.158;5.372;2023-05-07T13:14:41;22.50;99.90
15341;DHT22;7770;52.158;5.372;2023-05-07T13:17:27;22.40;99.90
15341;DHT22;7770;52.158;5.372;2023-05-07T13:20:13;22.90;99.90
15341;DHT22;7770;52.158;5.372;2023-05-07T13:23:00;23.20;99.90
15341;DHT22;7770;52.158;5.372;2023-05-07T13:25:48;22.80;99.90
15341;DHT22;7770;52.158;5.372;2023-05-07T13:28:35;22.60;99.90
15341;DHT22;7770;52.158;5.372;2023-05-07T13:31:21;22.60;99.90
15341;DHT22;7770;52.158;5.372;2023-05-07T13:34:07;22.60;99.90
15341;DHT22;7770;52.158;5.372;2023-05-07T13:36:53;22.90;99.90
15341;DHT22;7770;52.158;5.372;2023-05-07T13:39:39;22.80;99.90
15341;DHT22;7770;52.158;5.372;2023-05-07T13:42:26;22.60;99.90
15341;DHT22;7770;52.158;5.372;2023-05-07T13:45:12;22.60;99.90
15341;DHT22;7770;52.158;5.372;2023-05-07T13:48:00;22.30;99.90
15341;DHT22;7770;52.158;5.372;2023-05-07T13:50:46;22.30;99.90
15341;DHT22;7770;52.158;5.372;2023-05-07T13:53:32;22.10;99.90
15341;DHT22;7770;52.158;5.372;2023-05-07T13:56:18;22.20;99.90
15341;DHT22;7770;52.158;5.372;2023-05-07T13:59:05;22.10;99.90
15341;DHT22;7770;52.158;5.372;2023-05-07T14:01:51;21.90;99.90
15341;DHT22;7770;52.158;5.372;2023-05-07T14:04:37;21.80;99.90
15341;DHT22;7770;52.158;5.372;2023-05-07T14:07:24;22.10;99.90
15341;DHT22;7770;52.158;5.372;2023-05-07T14:10:10;22.00;99.90
15341;DHT22;7770;52.158;5.372;2023-05-07T14:12:56;21.60;99.90
15341;DHT22;7770;52.158;5.372;2023-05-07T14:15:43;21.80;99.90
15341;DHT22;7770;52.158;5.372;2023-05-07T14:18:32;21.70;99.90
15341;DHT22;7770;52.158;5.372;2023-05-07T14:21:19;21.70;99.90
15341;DHT22;7770;52.158;5.372;2023-05-07T14:24:06;21.80;99.90
15341;DHT22;7770;52.158;5.372;2023-05-07T14:26:53;21.80;99.90
15341;DHT22;7770;52.158;5.372;2023-05-07T14:29:39;21.80;99.90
15341;DHT22;7770;52.158;5.372;2023-05-07T14:32:25;21.70;99.90
15341;DHT22;7770;52.158;5.372;2023-05-07T14:35:11;21.80;99.90
15341;DHT22;7770;52.158;5.372;2023-05-07T14:37:57;21.80;99.90
15341;DHT22;7770;52.158;5.372;2023-05-07T14:40:44;21.60;99.90
15341;DHT22;7770;52.158;5.372;2023-05-07T14:43:30;21.50;99.90
15341;DHT22;7770;52.158;5.372;2023-05-07T14:46:19;21.30;99.90
15341;DHT22;7770;52.158;5.372;2023-05-07T14:49:06;21.10;99.90
15341;DHT22;7770;52.158;5.372;2023-05-07T14:51:52;21.10;99.90
15341;DHT22;7770;52.158;5.372;2023-05-07T14:54:39;21.00;99.90
15341;DHT22;7770;52.158;5.372;2023-05-07T14:57:25;21.10;99.90
15341;DHT22;7770;52.158;5.372;2023-05-07T15:00:11;20.80;99.90
15341;DHT22;7770;52.158;5.372;2023-05-07T15:03:05;20.70;99.90
15341;DHT22;7770;52.158;5.372;2023-05-07T15:05:55;20.70;99.90
15341;DHT22;7770;52.158;5.372;2023-05-07T15:08:41;20.40;99.90
15341;DHT22;7770;52.158;5.372;2023-05-07T15:11:27;20.30;99.90
15341;DHT22;7770;52.158;5.372;2023-05-07T15:14:13;20.20;99.90
15341;DHT22;7770;52.158;5.372;2023-05-07T15:16:59;20.10;99.90
15341;DHT22;7770;52.158;5.372;2023-05-07T15:19:45;20.10;99.90
15341;DHT22;7770;52.158;5.372;2023-05-07T15:22:31;20.20;99.90
15341;DHT22;7770;52.158;5.372;2023-05-07T15:25:17;20.30;99.90
15341;DHT22;7770;52.158;5.372;2023-05-07T15:28:03;20.40;99.90
15341;DHT22;7770;52.158;5.372;2023-05-07T15:30:49;20.10;99.90
15341;DHT22;7770;52.158;5.372;2023-05-07T15:33:36;19.50;99.90
15341;DHT22;7770;52.158;5.372;2023-05-07T15:36:21;19.00;99.90
15341;DHT22;7770;52.158;5.372;2023-05-07T15:39:07;18.60;99.90
15341;DHT22;7770;52.158;5.372;2023-05-07T15:41:53;18.40;99.90
15341;DHT22;7770;52.158;5.372;2023-05-07T15:44:39;18.20;99.90
15341;DHT22;7770;52.158;5.372;2023-05-07T15:47:26;18.00;99.90
15341;DHT22;7770;52.158;5.372;2023-05-07T15:50:12;17.70;99.90
15341;DHT22;7770;52.158;5.372;2023-05-07T15:52:58;17.20;99.90
15341;DHT22;7770;52.158;5.372;2023-05-07T15:55:44;16.70;99.90
15341;DHT22;7770;52.158;5.372;2023-05-07T15:58:30;16.50;99.90
15341;DHT22;7770;52.158;5.372;2023-05-07T16:01:16;16.30;99.90
15341;DHT22;7770;52.158;5.372;2023-05-07T16:04:02;16.10;99.90
15341;DHT22;7770;52.158;5.372;2023-05-07T16:06:49;16.00;99.90
15341;DHT22;7770;52.158;5.372;2023-05-07T16:09:35;16.00;99.90
15341;DHT22;7770;52.158;5.372;2023-05-07T16:12:21;15.90;99.90
15341;DHT22;7770;52.158;5.372;2023-05-07T16:15:07;15.90;99.90
15341;DHT22;7770;52.158;5.372;2023-05-07T16:17:53;15.90;99.90
15341;DHT22;7770;52.158;5.372;2023-05-07T16:20:42;15.80;99.90
15341;DHT22;7770;52.158;5.372;2023-05-07T16:23:28;15.90;99.90
15341;DHT22;7770;52.158;5.372;2023-05-07T16:26:14;15.80;99.90
15341;DHT22;7770;52.158;5.372;2023-05-07T16:29:00;15.90;99.90
15341;DHT22;7770;52.158;5.372;2023-05-07T16:31:49;15.90;99.90
15341;DHT22;7770;52.158;5.372;2023-05-07T16:34:35;15.90;99.90
15341;DHT22;7770;52.158;5.372;2023-05-07T16:37:21;16.00;99.90
15341;DHT22;7770;52.158;5.372;2023-05-07T16:40:08;15.90;99.90
15341;DHT22;7770;52.158;5.372;2023-05-07T16:42:54;15.70;99.90
15341;DHT22;7770;52.158;5.372;2023-05-07T16:45:40;15.50;99.90
15341;DHT22;7770;52.158;5.372;2023-05-07T16:48:26;15.50;99.90
15341;DHT22;7770;52.158;5.372;2023-05-07T16:51:12;15.70;99.90
15341;DHT22;7770;52.158;5.372;2023-05-07T16:53:58;15.70;99.90
15341;DHT22;7770;52.158;5.372;2023-05-07T16:56:44;15.80;99.90
15341;DHT22;7770;52.158;5.372;2023-05-07T16:59:30;16.00;99.90
15341;DHT22;7770;52.158;5.372;2023-05-07T17:02:18;16.10;99.90
15341;DHT22;7770;52.158;5.372;2023-05-07T17:05:04;16.20;99.90
15341;DHT22;7770;52.158;5.372;2023-05-07T17:07:51;16.40;99.90
15341;DHT22;7770;52.158;5.372;2023-05-07T17:10:37;16.50;99.90
15341;DHT22;7770;52.158;5.372;2023-05-07T17:13:23;16.60;99.90
15341;DHT22;7770;52.158;5.372;2023-05-07T17:16:09;16.90;99.90
15341;DHT22;7770;52.158;5.372;2023-05-07T17:18:55;17.00;99.90
15341;DHT22;7770;52.158;5.372;2023-05-07T17:21:41;17.10;99.90
15341;DHT22;7770;52.158;5.372;2023-05-07T17:24:27;17.10;99.90
15341;DHT22;7770;52.158;5.372;2023-05-07T17:27:13;17.10;99.90
15341;DHT22;7770;52.158;5.372;2023-05-07T17:29:59;17.20;99.90
15341;DHT22;7770;52.158;5.372;2023-05-07T17:32:45;17.30;99.90
15341;DHT22;7770;52.158;5.372;2023-05-07T17:35:31;17.40;99.90
15341;DHT22;7770;52.158;5.372;2023-05-07T17:38:17;17.50;99.90
15341;DHT22;7770;52.158;5.372;2023-05-07T17:41:03;17.50;99.90
15341;DHT22;7770;52.158;5.372;2023-05-07T17:43:49;17.60;99.90
15341;DHT22;7770;52.158;5.372;2023-05-07T17:46:35;17.60;99.90
15341;DHT22;7770;52.158;5.372;2023-05-07T17:49:21;17.40;99.90
15341;DHT22;7770;52.158;5.372;2023-05-07T17:52:07;17.20;99.90
15341;DHT22;7770;52.158;5.372;2023-05-07T17:54:53;17.40;99.90
15341;DHT22;7770;52.158;5.372;2023-05-07T17:57:39;17.50;99.90
15341;DHT22;7770;52.158;5.372;2023-05-07T18:00:25;17.40;99.90
15341;DHT22;7770;52.158;5.372;2023-05-07T18:03:11;17.00;99.90
15341;DHT22;7770;52.158;5.372;2023-05-07T18:05:57;17.10;99.90